createdAt,value
2022-11-17T00:02:03.066Z,12.50
2022-11-17T00:04:29.756Z,12.50
2022-11-17T00:07:01.479Z,12.50
2022-11-17T00:09:28.213Z,12.50
2022-11-17T00:12:13.479Z,12.50
2022-11-17T00:14:41.400Z,12.40
2022-11-17T00:17:10.475Z,12.40
2022-11-17T00:19:56.100Z,12.40
2022-11-17T00:22:23.574Z,12.50
2022-11-17T00:24:51.129Z,12.50
2022-11-17T00:27:18.192Z,12.50
2022-11-17T00:29:45.009Z,12.50
2022-11-17T00:32:35.430Z,12.50
2022-11-17T00:35:02.523Z,12.50
2022-11-17T00:37:33.504Z,12.50
2022-11-17T00:40:01.749Z,12.50
2022-11-17T00:42:28.449Z,12.40
2022-11-17T00:44:55.250Z,12.40
2022-11-17T00:47:21.961Z,12.50
2022-11-17T00:49:48.667Z,12.50
2022-11-17T00:52:15.617Z,12.50
2022-11-17T00:54:43.340Z,12.40
2022-11-17T00:57:10.030Z,12.40
2022-11-17T00:59:36.803Z,12.40
2022-11-17T01:02:04.111Z,12.50
2022-11-17T01:04:32.212Z,12.40
2022-11-17T01:06:59.078Z,12.40
2022-11-17T01:09:26.069Z,12.50
2022-11-17T01:11:55.218Z,12.40
2022-11-17T01:14:25.093Z,12.40
2022-11-17T01:16:52.733Z,12.40
2022-11-17T01:19:19.920Z,12.40
2022-11-17T01:21:47.554Z,12.40
2022-11-17T01:24:16.370Z,12.40
2022-11-17T01:26:44.866Z,12.40
2022-11-17T01:29:13.492Z,12.40
2022-11-17T01:31:43.408Z,12.40
2022-11-17T01:34:10.589Z,12.30
2022-11-17T01:36:58.956Z,12.30
2022-11-17T01:39:27.715Z,12.30
2022-11-17T01:41:55.307Z,12.30
2022-11-17T01:44:48.278Z,12.30
2022-11-17T01:47:35.141Z,12.30
2022-11-17T01:50:30.355Z,12.30
2022-11-17T01:53:02.684Z,12.30
2022-11-17T01:55:35.706Z,12.20
2022-11-17T01:58:26.934Z,12.20
2022-11-17T02:00:55.170Z,12.20
2022-11-17T02:03:22.621Z,12.10
2022-11-17T02:05:59.047Z,12.20
2022-11-17T02:08:30.476Z,12.20
2022-11-17T02:11:00.368Z,12.20
2022-11-17T02:13:28.341Z,12.20
2022-11-17T02:15:55.086Z,12.20
2022-11-17T02:18:22.349Z,12.20
2022-11-17T02:20:54.882Z,12.20
2022-11-17T02:23:33.940Z,12.10
2022-11-17T02:26:07.009Z,12.20
2022-11-17T02:28:42.439Z,12.20
2022-11-17T02:32:09.157Z,12.20
2022-11-17T02:34:56.599Z,12.30
2022-11-17T02:38:02.015Z,12.30
2022-11-17T02:40:34.059Z,12.20
2022-11-17T02:43:25.214Z,12.10
2022-11-17T02:46:01.353Z,12.10
2022-11-17T02:48:39.402Z,12.20
2022-11-17T02:51:10.466Z,12.20
2022-11-17T02:53:39.396Z,12.20
2022-11-17T02:56:08.163Z,12.10
2022-11-17T02:58:36.078Z,12.10
2022-11-17T03:01:37.662Z,12.10
2022-11-17T03:04:25.571Z,12.10
2022-11-17T03:06:55.427Z,12.10
2022-11-17T03:09:35.078Z,12.10
2022-11-17T03:12:16.434Z,12.00
2022-11-17T03:14:52.082Z,12.10
2022-11-17T03:17:31.563Z,12.00
2022-11-17T03:20:04.141Z,12.00
2022-11-17T03:22:51.355Z,12.10
2022-11-17T03:25:20.722Z,12.10
2022-11-17T03:27:51.722Z,12.10
2022-11-17T03:30:19.506Z,12.10
2022-11-17T03:32:51.923Z,12.10
2022-11-17T03:35:23.891Z,12.10
2022-11-17T03:37:56.591Z,12.20
2022-11-17T03:40:27.808Z,12.20
2022-11-17T03:42:59.047Z,12.20
2022-11-17T03:45:34.184Z,12.20
2022-11-17T03:48:13.074Z,12.30
2022-11-17T03:51:07.364Z,12.30
2022-11-17T03:53:36.751Z,12.30
2022-11-17T03:56:14.948Z,12.40
2022-11-17T03:58:55.808Z,12.40
2022-11-17T04:01:23.147Z,12.40
2022-11-17T04:03:49.969Z,12.40
2022-11-17T04:06:16.697Z,12.40
2022-11-17T04:08:44.672Z,12.40
2022-11-17T04:11:30.299Z,12.40
2022-11-17T04:14:15.861Z,12.40
2022-11-17T04:16:42.628Z,12.40
2022-11-17T04:19:09.312Z,12.40
2022-11-17T04:21:36.608Z,12.40
2022-11-17T04:24:03.371Z,12.40
2022-11-17T04:26:49.155Z,12.40
2022-11-17T04:29:15.911Z,12.40
2022-11-17T04:31:42.578Z,12.40
2022-11-17T04:34:10.030Z,12.40
2022-11-17T04:36:40.732Z,12.30
2022-11-17T04:39:07.744Z,12.30
2022-11-17T04:41:54.187Z,12.30
2022-11-17T04:44:27.147Z,12.30
2022-11-17T04:46:55.646Z,12.30
2022-11-17T04:49:24.831Z,12.30
2022-11-17T04:51:52.883Z,12.30
2022-11-17T04:54:24.177Z,12.30
2022-11-17T04:56:52.136Z,12.30
2022-11-17T04:59:18.933Z,12.30
2022-11-17T05:01:45.848Z,12.30
2022-11-17T05:04:15.007Z,12.20
2022-11-17T05:06:44.270Z,12.30
2022-11-17T05:09:16.114Z,12.30
2022-11-17T05:12:02.121Z,12.30
2022-11-17T05:14:29.977Z,12.30
2022-11-17T05:17:10.528Z,12.30
2022-11-17T05:19:44.763Z,12.30
2022-11-17T05:22:32.651Z,12.30
2022-11-17T05:24:59.712Z,12.30
2022-11-17T05:27:27.036Z,12.30
2022-11-17T05:29:53.853Z,12.30
2022-11-17T05:32:22.107Z,12.30
2022-11-17T05:34:48.930Z,12.30
2022-11-17T05:37:15.694Z,12.30
2022-11-17T05:39:42.490Z,12.40
2022-11-17T05:42:09.299Z,12.40
2022-11-17T05:44:37.133Z,12.30
2022-11-17T05:47:03.958Z,12.40
2022-11-17T05:49:31.178Z,12.40
2022-11-17T05:51:58.051Z,12.40
2022-11-17T05:54:24.786Z,12.50
2022-11-17T05:56:56.466Z,12.40
2022-11-17T05:59:28.832Z,12.50
2022-11-17T06:02:02.550Z,12.50
2022-11-17T06:04:29.459Z,12.50
2022-11-17T06:07:00.021Z,12.60
2022-11-17T06:09:31.068Z,12.60
2022-11-17T06:12:02.591Z,12.70
2022-11-17T06:14:32.729Z,12.70
2022-11-17T06:17:05.934Z,12.70
2022-11-17T06:19:39.759Z,12.70
2022-11-17T06:22:13.566Z,12.80
2022-11-17T06:24:43.480Z,12.80
2022-11-17T06:27:12.549Z,12.80
2022-11-17T06:29:44.255Z,12.80
2022-11-17T06:32:13.720Z,12.90
2022-11-17T06:34:41.254Z,13.00
2022-11-17T06:37:08.012Z,13.00
2022-11-17T06:39:34.882Z,13.00
2022-11-17T06:42:08.969Z,13.10
2022-11-17T06:44:35.691Z,13.10
2022-11-17T06:47:02.766Z,13.20
2022-11-17T06:49:29.673Z,13.20
2022-11-17T06:51:56.432Z,13.20
2022-11-17T06:54:23.233Z,13.30
2022-11-17T06:56:52.297Z,13.30
2022-11-17T06:59:19.101Z,13.40
2022-11-17T07:01:45.885Z,13.40
2022-11-17T07:04:12.720Z,13.40
2022-11-17T07:06:40.855Z,13.40
2022-11-17T07:09:07.789Z,13.30
2022-11-17T07:11:38.434Z,13.30
2022-11-17T07:14:05.243Z,13.20
2022-11-17T07:16:32.963Z,13.10
2022-11-17T07:18:59.880Z,13.10
2022-11-17T07:21:28.023Z,13.10
2022-11-17T07:23:56.026Z,13.10
2022-11-17T07:26:22.805Z,13.10
2022-11-17T07:28:49.511Z,13.00
2022-11-17T07:31:16.715Z,13.00
2022-11-17T07:33:43.523Z,13.00
2022-11-17T07:36:12.151Z,12.90
2022-11-17T07:38:40.226Z,12.90
2022-11-17T07:41:08.919Z,13.00
2022-11-17T07:43:36.684Z,13.00
2022-11-17T07:46:05.185Z,12.90
2022-11-17T07:48:32.913Z,12.90
2022-11-17T07:51:01.291Z,13.00
2022-11-17T07:53:29.131Z,13.00
2022-11-17T07:55:56.147Z,13.00
2022-11-17T07:58:25.772Z,13.10
2022-11-17T08:00:52.768Z,13.10
2022-11-17T08:03:19.613Z,13.20
2022-11-17T08:05:46.401Z,13.20
2022-11-17T08:08:13.729Z,13.30
2022-11-17T08:10:40.647Z,13.30
2022-11-17T08:13:07.797Z,13.30
2022-11-17T08:15:36.203Z,13.40
2022-11-17T08:18:03.261Z,13.30
2022-11-17T08:20:30.377Z,13.30
2022-11-17T08:22:57.218Z,13.30
2022-11-17T08:25:26.758Z,13.30
2022-11-17T08:27:58.276Z,13.30
2022-11-17T08:30:26.519Z,13.30
2022-11-17T08:32:54.642Z,13.30
2022-11-17T08:35:25.170Z,13.30
2022-11-17T08:37:52.444Z,13.30
2022-11-17T08:40:20.367Z,13.30
2022-11-17T08:42:47.695Z,13.30
2022-11-17T08:45:14.601Z,13.30
2022-11-17T08:47:41.689Z,13.30
2022-11-17T08:50:09.451Z,13.30
2022-11-17T08:52:36.281Z,13.30
2022-11-17T08:55:05.768Z,13.30
2022-11-17T08:57:33.437Z,13.30
2022-11-17T09:00:00.779Z,13.20
2022-11-17T09:02:27.811Z,13.20
2022-11-17T09:04:54.617Z,13.20
2022-11-17T09:07:21.544Z,13.20
2022-11-17T09:09:48.790Z,13.30
2022-11-17T09:12:16.292Z,13.30
2022-11-17T09:14:43.892Z,13.30
2022-11-17T09:17:10.957Z,13.30
2022-11-17T09:19:37.707Z,13.30
2022-11-17T09:22:05.085Z,13.40
2022-11-17T09:24:31.813Z,13.40
2022-11-17T09:26:58.655Z,13.50
2022-11-17T09:29:25.397Z,13.50
2022-11-17T09:31:52.167Z,13.60
2022-11-17T09:34:18.962Z,13.70
2022-11-17T09:36:45.705Z,13.70
2022-11-17T09:39:12.624Z,13.70
2022-11-17T09:41:46.432Z,13.70
2022-11-17T09:44:39.622Z,13.70
2022-11-17T09:47:42.732Z,13.70
2022-11-17T09:50:25.309Z,13.70
2022-11-17T09:53:17.675Z,13.80
2022-11-17T09:55:50.922Z,13.80
2022-11-17T09:58:39.965Z,13.80
2022-11-17T10:01:12.085Z,13.80
2022-11-17T10:03:45.990Z,13.90
2022-11-17T10:06:26.252Z,13.90
2022-11-17T10:08:58.671Z,14.00
2022-11-17T10:11:35.425Z,14.00
2022-11-17T10:14:16.592Z,14.10
2022-11-17T10:16:54.628Z,14.10
2022-11-17T10:19:26.343Z,14.10
2022-11-17T10:22:03.972Z,14.20
2022-11-17T10:24:34.865Z,14.10
2022-11-17T10:27:04.989Z,14.10
2022-11-17T10:29:31.933Z,14.20
2022-11-17T10:31:59.901Z,14.20
2022-11-17T10:34:41.381Z,14.20
2022-11-17T10:37:25.425Z,14.20
2022-11-17T10:40:08.917Z,14.20
2022-11-17T10:42:36.976Z,14.20
2022-11-17T10:45:04.061Z,14.20
2022-11-17T10:47:40.310Z,14.20
2022-11-17T10:50:23.283Z,14.20
2022-11-17T10:52:54.824Z,14.20
2022-11-17T10:55:31.591Z,14.30
2022-11-17T10:58:28.087Z,14.30
2022-11-17T11:00:57.711Z,14.30
2022-11-17T11:03:36.715Z,14.30
2022-11-17T11:06:06.927Z,14.30
2022-11-17T11:08:36.598Z,14.30
2022-11-17T11:11:07.943Z,14.40
2022-11-17T11:13:44.393Z,14.40
2022-11-17T11:16:12.088Z,14.40
2022-11-17T11:18:39.287Z,14.40
2022-11-17T11:21:14.652Z,14.40
2022-11-17T11:24:19.559Z,14.40
2022-11-17T11:27:24.307Z,14.50
2022-11-17T11:29:57.874Z,14.60
2022-11-17T11:32:32.691Z,14.50
2022-11-17T11:35:30.376Z,14.60
2022-11-17T11:38:06.113Z,14.60
2022-11-17T11:40:38.347Z,14.60
2022-11-17T11:43:40.670Z,14.60
2022-11-17T11:46:38.577Z,14.70
2022-11-17T11:49:31.875Z,14.80
2022-11-17T11:52:00.743Z,14.80
2022-11-17T11:54:47.773Z,14.80
2022-11-17T11:57:20.928Z,14.90
2022-11-17T12:00:03.773Z,14.80
2022-11-17T12:03:14.507Z,14.80
2022-11-17T12:05:41.465Z,14.80
2022-11-17T12:08:17.767Z,14.80
2022-11-17T12:11:26.573Z,14.90
2022-11-17T12:13:55.729Z,14.90
2022-11-17T12:16:34.311Z,14.80
2022-11-17T12:19:03.225Z,14.80
2022-11-17T12:21:30.838Z,14.80
2022-11-17T12:24:13.144Z,14.80
2022-11-17T12:26:40.669Z,14.80
2022-11-17T12:29:19.547Z,14.80
2022-11-17T12:31:57.609Z,14.80
2022-11-17T12:34:24.611Z,14.90
2022-11-17T12:37:06.710Z,14.80
2022-11-17T12:39:54.557Z,14.80
2022-11-17T12:42:21.522Z,14.80
2022-11-17T12:44:55.804Z,14.90
2022-11-17T12:47:26.239Z,14.90
2022-11-17T12:50:10.106Z,14.90
2022-11-17T12:53:12.076Z,15.00
2022-11-17T12:55:38.815Z,15.00
2022-11-17T12:58:30.194Z,15.00
2022-11-17T13:01:17.317Z,14.90
2022-11-17T13:03:55.009Z,14.90
2022-11-17T13:06:35.401Z,14.80
2022-11-17T13:09:06.550Z,14.80
2022-11-17T13:11:34.402Z,14.80
2022-11-17T13:14:13.829Z,14.80
2022-11-17T13:16:49.392Z,14.80
2022-11-17T13:19:32.782Z,14.90
2022-11-17T13:22:11.623Z,14.90
2022-11-17T13:24:40.786Z,14.80
2022-11-17T13:27:25.234Z,14.80
2022-11-17T13:29:52.591Z,14.80
2022-11-17T13:32:24.024Z,14.70
2022-11-17T13:34:53.674Z,14.70
2022-11-17T13:37:23.643Z,14.70
2022-11-17T13:40:14.386Z,14.70
2022-11-17T13:42:41.820Z,14.60
2022-11-17T13:45:14.919Z,14.70
2022-11-17T13:47:47.253Z,14.70
2022-11-17T13:50:32.000Z,14.70
2022-11-17T13:53:39.620Z,14.70
2022-11-17T13:56:24.909Z,14.70
2022-11-17T13:58:55.608Z,14.70
2022-11-17T14:01:29.633Z,14.70
2022-11-17T14:04:19.561Z,14.60
2022-11-17T14:06:56.206Z,14.70
2022-11-17T14:09:24.471Z,14.60
2022-11-17T14:11:51.630Z,14.60
2022-11-17T14:14:45.028Z,14.60
2022-11-17T14:17:22.290Z,14.60
2022-11-17T14:19:52.014Z,14.60
2022-11-17T14:22:30.984Z,14.60
2022-11-17T14:24:58.781Z,14.60
2022-11-17T14:27:38.314Z,14.50
2022-11-17T14:30:06.100Z,14.50
2022-11-17T14:32:34.712Z,14.50
2022-11-17T14:35:01.567Z,14.40
2022-11-17T14:37:32.239Z,14.40
2022-11-17T14:40:00.792Z,14.40
2022-11-17T14:42:33.022Z,14.40
2022-11-17T14:45:03.241Z,14.40
2022-11-17T14:47:30.100Z,14.40
2022-11-17T14:49:56.906Z,14.40
2022-11-17T14:52:23.684Z,14.40
2022-11-17T14:54:51.620Z,14.40
2022-11-17T14:57:18.433Z,14.50
2022-11-17T14:59:45.221Z,14.50
2022-11-17T15:02:12.201Z,14.50
2022-11-17T15:04:50.614Z,14.50
2022-11-17T15:07:18.159Z,14.50
2022-11-17T15:09:45.041Z,14.50
2022-11-17T15:12:11.844Z,14.50
2022-11-17T15:14:38.559Z,14.50
2022-11-17T15:17:09.834Z,14.40
2022-11-17T15:19:39.788Z,14.40
2022-11-17T15:22:06.888Z,14.50
2022-11-17T15:24:33.748Z,14.40
2022-11-17T15:27:01.223Z,14.40
2022-11-17T15:29:28.116Z,14.40
2022-11-17T15:31:58.850Z,14.40
2022-11-17T15:34:25.710Z,14.40
2022-11-17T15:36:52.804Z,14.30
2022-11-17T15:39:20.746Z,14.20
2022-11-17T15:41:49.976Z,14.20
2022-11-17T15:44:18.964Z,14.10
2022-11-17T15:46:47.817Z,14.10
2022-11-17T15:49:15.454Z,14.00
2022-11-17T15:51:42.329Z,14.10
2022-11-17T15:54:18.219Z,14.10
2022-11-17T15:56:46.606Z,14.00
2022-11-17T15:59:14.161Z,14.00
2022-11-17T16:01:41.518Z,14.00
2022-11-17T16:04:15.689Z,14.00
2022-11-17T16:06:43.223Z,14.00
2022-11-17T16:09:10.764Z,14.00
2022-11-17T16:11:38.000Z,13.90
2022-11-17T16:14:06.615Z,13.90
2022-11-17T16:16:38.175Z,13.90
2022-11-17T16:19:06.272Z,13.80
2022-11-17T16:21:33.428Z,13.80
2022-11-17T16:24:02.279Z,13.80
2022-11-17T16:26:30.616Z,13.80
2022-11-17T16:29:06.453Z,13.80
2022-11-17T16:31:35.814Z,13.70
2022-11-17T16:34:05.897Z,13.60
2022-11-17T16:36:36.758Z,13.60
2022-11-17T16:39:06.286Z,13.50
2022-11-17T16:41:37.713Z,13.50
2022-11-17T16:44:10.026Z,13.40
2022-11-17T16:46:37.748Z,13.40
2022-11-17T16:49:07.069Z,13.40
2022-11-17T16:51:33.852Z,13.40
2022-11-17T16:54:03.311Z,13.40
2022-11-17T16:56:30.972Z,13.40
2022-11-17T16:58:59.008Z,13.50
2022-11-17T17:01:30.223Z,13.50
2022-11-17T17:04:00.560Z,13.50
2022-11-17T17:06:27.710Z,13.50
2022-11-17T17:09:05.623Z,13.50
2022-11-17T17:11:33.797Z,13.50
2022-11-17T17:14:03.267Z,13.50
2022-11-17T17:16:32.487Z,13.50
2022-11-17T17:19:01.874Z,13.50
2022-11-17T17:21:29.715Z,13.50
2022-11-17T17:23:56.861Z,13.50
2022-11-17T17:26:25.860Z,13.50
2022-11-17T17:28:55.902Z,13.40
2022-11-17T17:31:24.165Z,13.40
2022-11-17T17:33:51.839Z,13.40
2022-11-17T17:36:21.075Z,13.40
2022-11-17T17:38:55.011Z,13.40
2022-11-17T17:41:27.446Z,13.40
2022-11-17T17:44:14.547Z,13.40
2022-11-17T17:46:42.889Z,13.40
2022-11-17T17:49:11.998Z,13.50
2022-11-17T17:51:43.103Z,13.50
2022-11-17T17:54:16.709Z,13.50
2022-11-17T17:56:43.727Z,13.50
2022-11-17T17:59:11.579Z,13.50
2022-11-17T18:01:40.892Z,13.40
2022-11-17T18:04:15.260Z,13.40
2022-11-17T18:06:46.220Z,13.30
2022-11-17T18:09:15.396Z,13.30
2022-11-17T18:11:48.010Z,13.30
2022-11-17T18:14:15.301Z,13.30
2022-11-17T18:16:42.000Z,13.30
2022-11-17T18:19:09.746Z,13.20
2022-11-17T18:21:36.809Z,13.20
2022-11-17T18:24:07.623Z,13.20
2022-11-17T18:26:36.171Z,13.20
2022-11-17T18:29:05.996Z,13.30
2022-11-17T18:31:34.724Z,13.30
2022-11-17T18:34:07.612Z,13.20
2022-11-17T18:36:35.667Z,13.20
2022-11-17T18:39:02.588Z,13.30
2022-11-17T18:41:31.010Z,13.30
2022-11-17T18:43:59.708Z,13.20
2022-11-17T18:46:29.324Z,13.20
2022-11-17T18:48:57.320Z,13.20
2022-11-17T18:51:27.056Z,13.20
2022-11-17T18:53:55.143Z,13.10
2022-11-17T18:56:26.989Z,13.10
2022-11-17T18:58:55.201Z,13.10
2022-11-17T19:01:24.283Z,13.10
2022-11-17T19:03:57.186Z,13.10
2022-11-17T19:06:25.335Z,13.10
2022-11-17T19:08:53.183Z,13.10
2022-11-17T19:11:24.220Z,13.10
2022-11-17T19:13:51.385Z,13.10
2022-11-17T19:16:24.417Z,13.10
2022-11-17T19:18:54.079Z,13.10
2022-11-17T19:21:25.522Z,13.10
2022-11-17T19:23:53.975Z,13.10
2022-11-17T19:26:32.028Z,13.20
2022-11-17T19:29:04.607Z,13.20
2022-11-17T19:31:32.008Z,13.20
2022-11-17T19:33:59.597Z,13.20
2022-11-17T19:36:29.790Z,13.20
2022-11-17T19:38:58.400Z,13.20
2022-11-17T19:41:27.679Z,13.20
2022-11-17T19:44:03.612Z,13.20
2022-11-17T19:46:33.968Z,13.20
2022-11-17T19:49:00.881Z,13.10
2022-11-17T19:51:30.064Z,13.10
2022-11-17T19:54:01.987Z,13.20
2022-11-17T19:56:29.156Z,13.20
2022-11-17T19:58:56.430Z,13.10
2022-11-17T20:01:25.490Z,13.10
2022-11-17T20:03:52.866Z,13.10
2022-11-17T20:06:22.390Z,13.10
2022-11-17T20:08:49.559Z,13.00
2022-11-17T20:11:21.077Z,13.00
2022-11-17T20:13:48.187Z,13.00
2022-11-17T20:16:19.920Z,13.00
2022-11-17T20:18:50.855Z,13.00
2022-11-17T20:21:18.043Z,13.00
2022-11-17T20:23:45.382Z,13.00
2022-11-17T20:26:17.581Z,12.90
2022-11-17T20:28:44.917Z,12.90
2022-11-17T20:31:20.588Z,12.80
2022-11-17T20:33:48.990Z,12.80
2022-11-17T20:36:18.778Z,12.90
2022-11-17T20:38:50.103Z,12.90
2022-11-17T20:41:17.119Z,12.90
2022-11-17T20:43:48.438Z,12.90
2022-11-17T20:46:15.325Z,12.80
2022-11-17T20:48:43.983Z,12.80
2022-11-17T20:51:16.266Z,12.80
2022-11-17T20:53:43.105Z,12.80
2022-11-17T20:56:12.165Z,12.80
2022-11-17T20:58:39.342Z,12.80
2022-11-17T21:01:11.608Z,12.80
2022-11-17T21:03:38.405Z,12.80
2022-11-17T21:06:05.891Z,12.80
2022-11-17T21:08:38.452Z,12.80
2022-11-17T21:11:08.200Z,12.70
2022-11-17T21:13:37.005Z,12.80
2022-11-17T21:16:03.685Z,12.70
2022-11-17T21:18:30.438Z,12.60
2022-11-17T21:21:00.323Z,12.70
2022-11-17T21:23:27.792Z,12.70
2022-11-17T21:25:55.052Z,12.70
2022-11-17T21:28:22.062Z,12.80
2022-11-17T21:30:48.985Z,12.80
2022-11-17T21:33:15.728Z,12.80
2022-11-17T21:35:43.058Z,12.80
2022-11-17T21:38:11.097Z,12.80
2022-11-17T21:40:37.961Z,12.80
2022-11-17T21:43:04.720Z,12.80
2022-11-17T21:45:33.265Z,12.80
2022-11-17T21:48:00.205Z,12.80
2022-11-17T21:50:27.209Z,12.80
2022-11-17T21:52:57.052Z,12.80
2022-11-17T21:55:24.792Z,12.80
2022-11-17T21:57:51.598Z,12.80
2022-11-17T22:00:21.569Z,12.80
2022-11-17T22:02:48.363Z,12.80
2022-11-17T22:05:16.435Z,12.80
2022-11-17T22:07:43.157Z,12.80
2022-11-17T22:10:10.070Z,12.80
2022-11-17T22:12:38.202Z,12.90
2022-11-17T22:15:10.326Z,12.80
2022-11-17T22:17:38.404Z,12.80
2022-11-17T22:20:05.942Z,12.60
2022-11-17T22:22:32.598Z,12.60
2022-11-17T22:25:11.648Z,12.50
2022-11-17T22:27:46.005Z,12.50
2022-11-17T22:30:13.238Z,12.50
2022-11-17T22:32:44.081Z,12.40
2022-11-17T22:35:15.102Z,12.30
2022-11-17T22:37:42.085Z,12.20
2022-11-17T22:40:09.053Z,12.10
2022-11-17T22:42:35.875Z,12.10
2022-11-17T22:45:02.782Z,12.10
2022-11-17T22:47:30.205Z,12.10
2022-11-17T22:49:56.944Z,12.10
2022-11-17T22:52:24.170Z,12.10
2022-11-17T22:54:52.408Z,12.10
2022-11-17T22:57:19.107Z,12.20
2022-11-17T22:59:47.908Z,12.20
2022-11-17T23:02:14.559Z,12.10
2022-11-17T23:04:41.327Z,12.10
2022-11-17T23:07:09.483Z,12.20
2022-11-17T23:09:36.297Z,12.20
2022-11-17T23:12:08.028Z,12.20
2022-11-17T23:14:36.070Z,12.20
2022-11-17T23:17:02.862Z,12.30
2022-11-17T23:19:31.919Z,12.20
2022-11-17T23:21:58.945Z,12.30
2022-11-17T23:24:26.040Z,12.30
2022-11-17T23:26:53.111Z,12.30
2022-11-17T23:29:19.880Z,12.30
2022-11-17T23:31:46.598Z,12.30
2022-11-17T23:34:13.966Z,12.30
2022-11-17T23:36:40.674Z,12.30
2022-11-17T23:39:07.790Z,12.20
2022-11-17T23:41:34.529Z,12.10
2022-11-17T23:44:02.769Z,12.10
2022-11-17T23:46:29.658Z,12.10
2022-11-17T23:48:57.250Z,12.10
2022-11-17T23:51:26.235Z,12.20
2022-11-17T23:53:55.012Z,12.20
2022-11-17T23:56:22.702Z,12.20
2022-11-17T23:58:50.437Z,12.20
